Time;durP1;ratioP1;P1;durP2;ratioP2;P2;SDS_P1;SDS_P2;PMS_P1;PMS_P2;Temp;Humidity;BMP_temperature;BMP_pressure;BME280_temperature;BME280_humidity;BME280_pressure;Samples;Min_cycle;Max_cycle;Signal;HPM_P1;HPM_P2
2021/08/11 00:03:37;;;;;;;8.73;4.10;;;;;;;;;;10498688;28;20203;-71
2021/08/11 00:08:41;;;;;;;8.87;4.27;;;;;;;;;;10484388;28;20212;-69
2021/08/11 00:13:44;;;;;;;9.57;4.40;;;;;;;;;;10473751;28;20201;-72
2021/08/11 00:18:46;;;;;;;10.70;4.73;;;;;;;;;;10477417;28;20256;-71
2021/08/11 00:23:51;;;;;;;7.97;4.30;;;;;;;;;;10471262;28;20375;-70
2021/08/11 00:28:53;;;;;;;9.20;4.90;;;;;;;;;;10475610;28;20221;-71
2021/08/11 00:33:56;;;;;;;8.23;4.30;;;;;;;;;;10477765;28;20264;-70
2021/08/11 00:39:00;;;;;;;8.67;4.83;;;;;;;;;;10482641;28;20284;-70
2021/08/11 00:44:02;;;;;;;10.10;4.57;;;;;;;;;;10477297;28;20299;-70
2021/08/11 00:49:05;;;;;;;8.63;4.33;;;;;;;;;;10479222;28;20270;-70
2021/08/11 00:54:09;;;;;;;10.30;4.33;;;;;;;;;;10478610;28;20299;-72
2021/08/11 00:59:12;;;;;;;9.50;4.37;;;;;;;;;;10473032;28;20587;-71
2021/08/11 01:04:16;;;;;;;10.87;4.17;;;;;;;;;;10468572;28;20220;-71
2021/08/11 01:09:21;;;;;;;8.03;4.03;;;;;;;;;;10476263;28;20240;-71
2021/08/11 01:14:25;;;;;;;8.20;4.30;;;;;;;;;;10477442;28;20192;-70
2021/08/11 01:19:30;;;;;;;7.00;4.03;;;;;;;;;;10481396;28;20301;-71
2021/08/11 01:24:37;;;;;;;8.70;4.10;;;;;;;;;;10467779;28;20205;-72
2021/08/11 01:29:48;;;;;;;7.53;4.03;;;;;;;;;;10473248;28;20606;-71
2021/08/11 01:34:52;;;;;;;8.83;4.33;;;;;;;;;;10479886;28;20830;-71
2021/08/11 01:39:58;;;;;;;9.73;4.57;;;;;;;;;;10476984;28;20244;-70
2021/08/11 01:45:03;;;;;;;7.30;4.30;;;;;;;;;;10478102;28;20211;-70
2021/08/11 01:50:08;;;;;;;9.20;4.17;;;;;;;;;;10482902;28;20230;-71
2021/08/11 01:55:11;;;;;;;8.80;4.13;;;;;;;;;;10473467;28;20258;-72
2021/08/11 02:00:14;;;;;;;7.90;4.30;;;;;;;;;;10476279;28;20212;-73
2021/08/11 02:05:19;;;;;;;8.03;4.10;;;;;;;;;;10479635;28;20243;-72
2021/08/11 02:10:22;;;;;;;10.70;4.57;;;;;;;;;;10480993;28;20216;-70
2021/08/11 02:15:24;;;;;;;9.40;4.20;;;;;;;;;;10478455;28;20185;-72
2021/08/11 02:20:28;;;;;;;9.60;4.93;;;;;;;;;;10465673;28;20235;-70
2021/08/11 02:25:32;;;;;;;8.43;4.20;;;;;;;;;;10479509;28;20237;-70
2021/08/11 02:30:37;;;;;;;8.20;4.63;;;;;;;;;;10469354;28;20723;-72
2021/08/11 02:35:44;;;;;;;8.57;4.53;;;;;;;;;;10474616;28;20549;-72
2021/08/11 02:40:49;;;;;;;8.77;4.50;;;;;;;;;;10468725;28;20290;-73
2021/08/11 02:45:54;;;;;;;9.30;4.50;;;;;;;;;;10465462;28;20262;-71
2021/08/11 02:50:59;;;;;;;8.03;4.37;;;;;;;;;;10459511;28;20230;-70
2021/08/11 02:56:02;;;;;;;8.80;4.40;;;;;;;;;;10469257;28;20196;-71
2021/08/11 03:01:04;;;;;;;7.57;4.10;;;;;;;;;;10460052;28;20668;-71
2021/08/11 03:06:08;;;;;;;8.63;4.47;;;;;;;;;;10468643;28;20204;-72
2021/08/11 03:11:11;;;;;;;9.57;4.43;;;;;;;;;;10473333;28;20223;-72
2021/08/11 03:16:15;;;;;;;9.27;4.47;;;;;;;;;;10464699;28;20196;-70
2021/08/11 03:21:20;;;;;;;9.00;4.07;;;;;;;;;;10470825;28;20580;-72
2021/08/11 03:26:23;;;;;;;12.20;4.77;;;;;;;;;;10472287;28;20236;-72
2021/08/11 03:31:25;;;;;;;8.43;4.10;;;;;;;;;;10484995;28;20299;-73
2021/08/11 03:36:29;;;;;;;9.03;4.67;;;;;;;;;;10476566;28;20309;-72
2021/08/11 03:41:32;;;;;;;8.17;4.07;;;;;;;;;;10491253;28;20220;-71
2021/08/11 03:46:35;;;;;;;7.87;4.47;;;;;;;;;;10478454;28;20202;-71
2021/08/11 03:51:38;;;;;;;8.03;4.20;;;;;;;;;;10489279;28;20251;-72
2021/08/11 03:56:41;;;;;;;10.17;4.50;;;;;;;;;;10491454;28;20192;-71
2021/08/11 04:01:43;;;;;;;8.70;4.63;;;;;;;;;;10487985;28;20266;-72
2021/08/11 04:06:48;;;;;;;8.83;4.87;;;;;;;;;;10480699;28;20201;-71
2021/08/11 04:11:50;;;;;;;8.93;4.60;;;;;;;;;;10484266;28;20541;-72
2021/08/11 04:16:53;;;;;;;9.13;4.47;;;;;;;;;;10485737;28;20283;-73
2021/08/11 04:21:57;;;;;;;7.93;4.50;;;;;;;;;;10490398;28;20263;-73
2021/08/11 04:26:59;;;;;;;10.23;4.17;;;;;;;;;;10481708;28;20333;-71
2021/08/11 04:32:02;;;;;;;8.60;4.70;;;;;;;;;;10492021;28;20208;-73
2021/08/11 04:37:06;;;;;;;8.27;4.43;;;;;;;;;;10470884;28;20211;-71
2021/08/11 04:42:09;;;;;;;8.00;4.23;;;;;;;;;;10486047;28;20242;-73
2021/08/11 04:47:11;;;;;;;7.73;4.40;;;;;;;;;;10493141;28;20274;-72
2021/08/11 04:52:15;;;;;;;7.83;4.33;;;;;;;;;;10473819;28;20227;-72
2021/08/11 04:57:17;;;;;;;10.13;4.30;;;;;;;;;;10473640;28;20192;-72
2021/08/11 05:02:20;;;;;;;9.63;4.47;;;;;;;;;;10474898;28;20216;-71
2021/08/11 05:07:24;;;;;;;8.87;4.40;;;;;;;;;;10465873;28;20555;-71
2021/08/11 05:12:27;;;;;;;9.33;4.60;;;;;;;;;;10474657;28;20220;-74
2021/08/11 05:17:30;;;;;;;9.83;4.63;;;;;;;;;;10467621;28;20670;-70
2021/08/11 05:22:34;;;;;;;8.20;3.90;;;;;;;;;;10480811;28;20236;-71
2021/08/11 05:27:36;;;;;;;10.03;4.50;;;;;;;;;;10479756;28;20621;-71
2021/08/11 05:32:39;;;;;;;13.00;4.10;;;;;;;;;;10467069;28;20617;-70
2021/08/11 05:37:43;;;;;;;8.97;4.07;;;;;;;;;;10475437;28;20204;-70
2021/08/11 05:42:45;;;;;;;7.97;3.90;;;;;;;;;;10472610;28;20193;-71
2021/08/11 05:47:48;;;;;;;9.13;3.87;;;;;;;;;;10475352;28;20557;-71
2021/08/11 05:52:52;;;;;;;7.80;4.13;;;;;;;;;;10472947;28;20557;-70
2021/08/11 05:57:56;;;;;;;8.67;4.20;;;;;;;;;;10466715;28;20216;-71
2021/08/11 06:02:58;;;;;;;10.63;4.10;;;;;;;;;;10468050;28;20220;-74
2021/08/11 06:08:03;;;;;;;8.07;3.87;;;;;;;;;;10481386;28;20867;-71
2021/08/11 06:13:06;;;;;;;8.73;3.67;;;;;;;;;;10493791;28;20194;-73
2021/08/11 06:18:09;;;;;;;9.07;3.77;;;;;;;;;;10478818;28;20569;-71
2021/08/11 06:23:13;;;;;;;7.60;2.97;;;;;;;;;;10477993;28;20242;-72
2021/08/11 06:28:15;;;;;;;7.03;2.90;;;;;;;;;;10473076;28;20288;-73
2021/08/11 06:33:18;;;;;;;5.93;2.53;;;;;;;;;;10476729;28;20216;-73
2021/08/11 06:38:22;;;;;;;6.47;2.77;;;;;;;;;;10476543;28;20219;-73
2021/08/11 06:43:24;;;;;;;6.17;2.90;;;;;;;;;;10467722;28;20235;-73
2021/08/11 06:48:27;;;;;;;6.53;2.77;;;;;;;;;;10468598;28;20290;-73
2021/08/11 06:53:30;;;;;;;7.00;2.83;;;;;;;;;;10482667;28;20605;-73
2021/08/11 06:58:34;;;;;;;5.33;2.37;;;;;;;;;;10478753;28;20238;-74
2021/08/11 07:03:40;;;;;;;4.93;2.20;;;;;;;;;;10477713;28;20215;-73
2021/08/11 07:08:45;;;;;;;6.33;2.60;;;;;;;;;;10475106;28;20240;-73
2021/08/11 07:13:47;;;;;;;6.83;2.97;;;;;;;;;;10477037;28;20279;-73
2021/08/11 07:18:50;;;;;;;6.25;2.58;;;;;;;;;;10480335;28;20308;-74
2021/08/11 07:23:53;;;;;;;6.15;2.75;;;;;;;;;;10474463;28;20212;-75
2021/08/11 07:28:56;;;;;;;6.35;2.75;;;;;;;;;;10464196;28;20291;-74
2021/08/11 07:33:58;;;;;;;7.88;2.80;;;;;;;;;;10471865;28;20184;-74
2021/08/11 07:39:02;;;;;;;5.63;2.40;;;;;;;;;;10473266;28;20217;-75
2021/08/11 07:44:05;;;;;;;7.30;2.70;;;;;;;;;;10468776;28;20201;-74
2021/08/11 07:49:08;;;;;;;6.22;2.60;;;;;;;;;;10477543;28;20240;-75
2021/08/11 07:54:12;;;;;;;3.83;2.30;;;;;;;;;;10467513;28;20192;-72
2021/08/11 07:59:14;;;;;;;4.45;2.17;;;;;;;;;;10479480;28;20216;-74
2021/08/11 08:04:17;;;;;;;4.93;2.70;;;;;;;;;;10467372;28;20204;-75
2021/08/11 08:09:21;;;;;;;6.78;3.65;;;;;;;;;;10481084;28;20219;-74
2021/08/11 08:14:24;;;;;;;6.15;2.60;;;;;;;;;;10491396;28;20196;-73
2021/08/11 08:19:26;;;;;;;5.03;2.75;;;;;;;;;;10492051;28;20232;-73
2021/08/11 08:24:32;;;;;;;3.83;2.20;;;;;;;;;;10492688;28;20299;-73
2021/08/11 08:29:35;;;;;;;4.38;2.40;;;;;;;;;;10493171;28;20220;-73
2021/08/11 08:34:42;;;;;;;5.18;2.63;;;;;;;;;;10486430;28;20196;-73
2021/08/11 08:39:45;;;;;;;4.68;2.67;;;;;;;;;;10498943;28;20261;-72
2021/08/11 08:44:48;;;;;;;5.03;2.80;;;;;;;;;;10490944;28;20200;-72
2021/08/11 08:49:51;;;;;;;5.40;2.90;;;;;;;;;;10490687;28;20209;-73
2021/08/11 08:54:57;;;;;;;4.97;2.83;;;;;;;;;;10490420;28;20203;-74
2021/08/11 08:59:59;;;;;;;8.48;5.40;;;;;;;;;;10494134;28;20623;-72
2021/08/11 09:05:02;;;;;;;5.20;2.70;;;;;;;;;;10471571;28;20475;-74
2021/08/11 09:10:19;;;;;;;5.95;2.60;;;;;;;;;;10491942;28;20220;-74
2021/08/11 09:15:39;;;;;;;5.07;2.90;;;;;;;;;;10493231;28;20194;-74
2021/08/11 09:20:43;;;;;;;5.75;2.97;;;;;;;;;;10490491;28;20250;-74
2021/08/11 09:26:00;;;;;;;4.82;2.80;;;;;;;;;;10496385;28;20910;-73
2021/08/11 09:31:19;;;;;;;7.15;3.40;;;;;;;;;;10485063;28;20232;-73
2021/08/11 09:36:22;;;;;;;6.00;3.00;;;;;;;;;;10494267;28;20249;-73
2021/08/11 09:41:26;;;;;;;4.68;2.92;;;;;;;;;;10490448;28;20220;-73
2021/08/11 09:46:29;;;;;;;5.30;3.00;;;;;;;;;;10488985;28;20211;-74
2021/08/11 09:51:32;;;;;;;5.22;3.38;;;;;;;;;;10489278;28;20247;-75
2021/08/11 09:56:41;;;;;;;5.55;3.25;;;;;;;;;;10491672;28;20208;-73
2021/08/11 10:01:43;;;;;;;6.07;3.60;;;;;;;;;;10498057;28;20223;-75
2021/08/11 10:06:47;;;;;;;7.00;3.67;;;;;;;;;;10488902;28;20224;-75
2021/08/11 10:11:51;;;;;;;7.75;3.90;;;;;;;;;;10500775;28;20228;-74
2021/08/11 10:16:54;;;;;;;7.53;3.97;;;;;;;;;;10492815;28;20613;-75
2021/08/11 10:21:58;;;;;;;8.02;3.90;;;;;;;;;;10494283;28;20220;-75
2021/08/11 10:27:06;;;;;;;6.13;3.88;;;;;;;;;;10500196;28;20197;-74
2021/08/11 10:32:09;;;;;;;5.82;3.97;;;;;;;;;;10517091;28;20214;-75
2021/08/11 10:37:13;;;;;;;5.35;3.50;;;;;;;;;;10499382;28;20209;-73
2021/08/11 10:42:17;;;;;;;5.97;3.72;;;;;;;;;;10500896;28;20584;-74
2021/08/11 10:47:28;;;;;;;6.10;4.15;;;;;;;;;;10522361;28;20213;-74
2021/08/11 10:52:31;;;;;;;5.78;3.63;;;;;;;;;;10495246;28;20679;-74
2021/08/11 10:57:45;;;;;;;5.40;3.70;;;;;;;;;;10524906;28;20208;-73
2021/08/11 11:02:49;;;;;;;6.22;4.10;;;;;;;;;;10514093;28;20297;-75
2021/08/11 11:08:09;;;;;;;7.63;4.30;;;;;;;;;;10517314;28;20212;-74
2021/08/11 11:13:29;;;;;;;7.57;4.55;;;;;;;;;;10509457;28;20192;-74
2021/08/11 11:18:33;;;;;;;5.78;4.00;;;;;;;;;;10495718;28;20285;-75
2021/08/11 11:23:36;;;;;;;6.97;4.22;;;;;;;;;;10503260;28;20307;-74
2021/08/11 11:28:58;;;;;;;7.40;3.92;;;;;;;;;;10511947;28;20216;-75
2021/08/11 11:34:19;;;;;;;7.38;4.55;;;;;;;;;;10504201;28;20204;-74
2021/08/11 11:39:24;;;;;;;6.95;4.25;;;;;;;;;;10504242;28;20223;-75
2021/08/11 11:44:45;;;;;;;6.53;3.92;;;;;;;;;;10519555;28;20204;-75
2021/08/11 11:50:19;;;;;;;6.35;4.05;;;;;;;;;;10516196;28;20240;-74
2021/08/11 11:55:27;;;;;;;7.60;4.40;;;;;;;;;;10512478;28;20219;-75
2021/08/11 12:00:30;;;;;;;7.20;4.50;;;;;;;;;;10508648;28;20307;-75
2021/08/11 12:05:43;;;;;;;8.20;4.70;;;;;;;;;;10506486;28;20299;-74
2021/08/11 12:10:48;;;;;;;7.65;4.22;;;;;;;;;;10512850;28;20224;-76
2021/08/11 12:15:51;;;;;;;6.40;4.30;;;;;;;;;;10503952;28;20200;-75
2021/08/11 12:20:54;;;;;;;7.65;4.35;;;;;;;;;;10513818;28;20208;-75
2021/08/11 12:25:59;;;;;;;7.45;4.90;;;;;;;;;;10501906;28;20262;-74
2021/08/11 12:31:03;;;;;;;8.45;4.40;;;;;;;;;;10514333;28;20223;-74
2021/08/11 12:36:10;;;;;;;7.35;4.97;;;;;;;;;;10507733;28;20231;-75
2021/08/11 12:41:20;;;;;;;7.18;4.38;;;;;;;;;;10514171;28;20584;-74
2021/08/11 12:46:37;;;;;;;7.05;4.63;;;;;;;;;;10504558;28;20196;-74
2021/08/11 12:51:40;;;;;;;10.50;5.00;;;;;;;;;;10511574;28;20204;-73
2021/08/11 12:57:02;;;;;;;6.63;4.63;;;;;;;;;;10508417;28;20212;-73
2021/08/11 13:02:18;;;;;;;8.93;4.95;;;;;;;;;;10496948;28;20223;-75
2021/08/11 13:07:21;;;;;;;7.18;4.47;;;;;;;;;;10499650;28;20255;-75
2021/08/11 13:12:29;;;;;;;8.85;4.28;;;;;;;;;;10504920;28;20228;-74
2021/08/11 13:17:32;;;;;;;8.50;4.68;;;;;;;;;;10501987;28;20322;-75
2021/08/11 13:22:35;;;;;;;7.15;4.80;;;;;;;;;;10501870;28;20355;-75
2021/08/11 13:27:39;;;;;;;7.93;4.95;;;;;;;;;;10504723;28;20280;-75
2021/08/11 13:32:42;;;;;;;9.25;4.95;;;;;;;;;;10495374;28;20192;-75
2021/08/11 13:37:44;;;;;;;8.45;4.82;;;;;;;;;;10502831;28;20208;-77
2021/08/11 13:42:48;;;;;;;7.70;4.63;;;;;;;;;;10505480;28;20644;-76
2021/08/11 13:47:51;;;;;;;9.23;5.07;;;;;;;;;;10495422;28;20623;-75
2021/08/11 13:52:54;;;;;;;8.75;4.65;;;;;;;;;;10497229;28;20692;-73
2021/08/11 13:57:59;;;;;;;8.40;5.10;;;;;;;;;;10492513;28;20286;-75
2021/08/11 14:03:01;;;;;;;7.68;4.53;;;;;;;;;;10491479;28;20248;-75
2021/08/11 14:08:05;;;;;;;8.32;4.90;;;;;;;;;;10482567;28;20240;-75
2021/08/11 14:13:08;;;;;;;8.15;4.78;;;;;;;;;;10474393;28;20245;-72
2021/08/11 14:18:11;;;;;;;7.75;4.20;;;;;;;;;;10477158;28;20216;-75
2021/08/11 14:23:14;;;;;;;7.20;3.92;;;;;;;;;;10490307;28;20192;-73
2021/08/11 14:28:18;;;;;;;7.63;4.80;;;;;;;;;;10496755;28;20307;-74
2021/08/11 14:33:20;;;;;;;8.20;4.50;;;;;;;;;;10493643;28;20222;-74
2021/08/11 14:38:23;;;;;;;7.70;4.20;;;;;;;;;;10493459;28;20217;-74
2021/08/11 14:43:27;;;;;;;7.60;4.40;;;;;;;;;;10498860;28;20208;-75
2021/08/11 14:48:30;;;;;;;7.10;3.85;;;;;;;;;;10507583;28;20314;-72
2021/08/11 14:53:34;;;;;;;7.00;4.30;;;;;;;;;;10487068;28;20204;-71
2021/08/11 14:58:40;;;;;;;7.63;4.43;;;;;;;;;;10486612;28;20235;-74
2021/08/11 15:03:43;;;;;;;8.15;4.82;;;;;;;;;;10470884;28;20747;-76
2021/08/11 15:08:46;;;;;;;7.50;4.38;;;;;;;;;;10466948;28;20226;-76
2021/08/11 15:13:50;;;;;;;7.25;4.43;;;;;;;;;;10479754;28;20276;-75
2021/08/11 15:18:52;;;;;;;7.22;4.22;;;;;;;;;;10478108;28;20697;-75
2021/08/11 15:23:55;;;;;;;8.68;4.53;;;;;;;;;;10479058;28;20196;-76
2021/08/11 15:28:59;;;;;;;7.68;4.35;;;;;;;;;;10482863;28;20216;-75
2021/08/11 15:34:01;;;;;;;9.05;4.50;;;;;;;;;;10479131;28;20538;-76
2021/08/11 15:39:04;;;;;;;9.23;4.60;;;;;;;;;;10478206;28;20270;-76
2021/08/11 15:44:08;;;;;;;7.68;4.40;;;;;;;;;;10496674;28;20498;-76
2021/08/11 15:49:10;;;;;;;8.43;4.43;;;;;;;;;;10481285;28;20200;-76
2021/08/11 15:54:13;;;;;;;7.35;4.05;;;;;;;;;;10479211;28;20657;-77
2021/08/11 15:59:17;;;;;;;8.07;4.53;;;;;;;;;;10477077;28;20295;-77
2021/08/11 16:04:19;;;;;;;10.32;6.68;;;;;;;;;;10473140;28;20313;-77
2021/08/11 16:09:22;;;;;;;8.15;4.80;;;;;;;;;;10482665;28;20213;-77
2021/08/11 16:14:26;;;;;;;10.43;5.10;;;;;;;;;;10470987;28;20200;-76
2021/08/11 16:19:29;;;;;;;8.57;4.95;;;;;;;;;;10484406;28;20216;-77
2021/08/11 16:24:31;;;;;;;7.13;4.20;;;;;;;;;;10480686;28;20188;-75
2021/08/11 16:29:35;;;;;;;6.97;4.20;;;;;;;;;;10479074;28;20212;-75
2021/08/11 16:34:38;;;;;;;9.40;4.70;;;;;;;;;;10481732;28;20276;-76
2021/08/11 16:39:41;;;;;;;8.30;4.05;;;;;;;;;;10492791;28;20227;-76
2021/08/11 16:44:45;;;;;;;9.07;5.22;;;;;;;;;;10483183;28;20188;-75
2021/08/11 16:49:47;;;;;;;8.70;4.60;;;;;;;;;;10485984;28;20593;-75
2021/08/11 16:54:49;;;;;;;11.30;4.72;;;;;;;;;;10473572;28;20220;-76
2021/08/11 16:59:53;;;;;;;17.52;13.75;;;;;;;;;;10493656;28;20289;-77
2021/08/11 17:04:56;;;;;;;12.93;8.93;;;;;;;;;;10481838;28;20676;-75
2021/08/11 17:09:58;;;;;;;8.35;4.93;;;;;;;;;;10476680;28;20755;-75
2021/08/11 17:15:03;;;;;;;10.23;6.10;;;;;;;;;;10494697;28;20588;-75
2021/08/11 17:20:07;;;;;;;10.25;4.85;;;;;;;;;;10486991;28;20243;-76
2021/08/11 17:25:10;;;;;;;9.00;5.18;;;;;;;;;;10489581;28;20215;-77
2021/08/11 17:30:14;;;;;;;8.98;4.60;;;;;;;;;;10483133;28;20599;-76
2021/08/11 17:35:17;;;;;;;7.80;4.63;;;;;;;;;;10482786;28;20189;-74
2021/08/11 17:40:20;;;;;;;8.98;4.57;;;;;;;;;;10483157;28;20252;-74
2021/08/11 17:45:24;;;;;;;9.10;5.47;;;;;;;;;;10486276;28;20192;-77
2021/08/11 17:50:26;;;;;;;9.13;4.93;;;;;;;;;;10474037;28;20277;-76
2021/08/11 17:55:29;;;;;;;9.63;5.43;;;;;;;;;;10491703;28;20242;-76
2021/08/11 18:00:33;;;;;;;10.25;5.22;;;;;;;;;;10487696;28;20216;-76
2021/08/11 18:05:35;;;;;;;8.95;4.90;;;;;;;;;;10475082;28;20307;-76
2021/08/11 18:10:38;;;;;;;9.10;5.30;;;;;;;;;;10491087;28;20518;-75
2021/08/11 18:15:42;;;;;;;10.48;5.93;;;;;;;;;;10484697;28;20246;-75
2021/08/11 18:20:45;;;;;;;10.77;5.15;;;;;;;;;;10485650;28;20224;-76
2021/08/11 18:25:48;;;;;;;9.32;5.53;;;;;;;;;;10474851;28;20279;-74
2021/08/11 18:30:51;;;;;;;21.77;17.23;;;;;;;;;;10480183;28;20248;-76
2021/08/11 18:35:54;;;;;;;8.85;5.88;;;;;;;;;;10486634;28;20608;-75
2021/08/11 18:40:57;;;;;;;9.88;5.60;;;;;;;;;;10484945;28;20307;-76
2021/08/11 18:46:00;;;;;;;8.82;5.20;;;;;;;;;;10472248;28;20200;-76
2021/08/11 18:51:03;;;;;;;9.23;5.30;;;;;;;;;;10469073;28;20681;-75
2021/08/11 18:56:06;;;;;;;9.30;5.07;;;;;;;;;;10483668;28;20278;-75
2021/08/11 19:01:10;;;;;;;13.43;7.22;;;;;;;;;;10487503;28;20308;-74
2021/08/11 19:06:13;;;;;;;10.25;6.43;;;;;;;;;;10474437;28;20192;-75
2021/08/11 19:11:16;;;;;;;11.70;7.38;;;;;;;;;;10466982;28;20212;-75
2021/08/11 19:16:19;;;;;;;11.75;8.13;;;;;;;;;;10477651;28;20196;-75
2021/08/11 19:21:22;;;;;;;13.13;7.05;;;;;;;;;;10467025;28;20224;-75
2021/08/11 19:26:25;;;;;;;10.55;6.85;;;;;;;;;;10477623;28;20224;-75
2021/08/11 19:31:28;;;;;;;11.40;6.63;;;;;;;;;;10475176;28;20295;-76
2021/08/11 19:36:31;;;;;;;16.75;8.88;;;;;;;;;;10489181;28;20192;-75
2021/08/11 19:41:34;;;;;;;10.85;5.63;;;;;;;;;;10478744;28;20236;-76
2021/08/11 19:46:38;;;;;;;9.38;5.20;;;;;;;;;;10473386;28;20255;-76
2021/08/11 19:51:41;;;;;;;11.02;4.60;;;;;;;;;;10486247;28;20270;-75
2021/08/11 19:56:43;;;;;;;9.60;4.60;;;;;;;;;;10485348;28;20214;-75
2021/08/11 20:01:47;;;;;;;10.60;4.50;;;;;;;;;;10478719;28;20666;-76
2021/08/11 20:06:50;;;;;;;10.23;4.80;;;;;;;;;;10467379;28;20204;-75
2021/08/11 20:11:52;;;;;;;9.88;4.32;;;;;;;;;;10479623;28;20212;-75
2021/08/11 20:16:56;;;;;;;9.07;4.60;;;;;;;;;;10472974;28;20237;-76
2021/08/11 20:21:59;;;;;;;13.40;7.50;;;;;;;;;;10479507;28;20221;-76
2021/08/11 20:27:01;;;;;;;10.97;6.40;;;;;;;;;;10480297;28;20184;-75
2021/08/11 20:32:06;;;;;;;9.47;5.67;;;;;;;;;;10495182;28;20232;-75
2021/08/11 20:37:13;;;;;;;14.38;6.38;;;;;;;;;;10474677;28;20196;-74
2021/08/11 20:42:15;;;;;;;13.85;5.05;;;;;;;;;;10464078;28;20216;-75
2021/08/11 20:47:19;;;;;;;13.63;6.50;;;;;;;;;;10470137;28;20756;-76
2021/08/11 20:52:22;;;;;;;14.73;9.50;;;;;;;;;;10476478;28;20315;-75
2021/08/11 20:57:24;;;;;;;10.83;5.27;;;;;;;;;;10461163;28;20196;-75
2021/08/11 21:02:28;;;;;;;10.13;5.07;;;;;;;;;;10463715;28;20296;-76
2021/08/11 21:07:31;;;;;;;10.67;4.97;;;;;;;;;;10476109;28;20220;-76
2021/08/11 21:12:34;;;;;;;9.53;4.43;;;;;;;;;;10474319;28;20227;-76
2021/08/11 21:17:37;;;;;;;9.70;4.40;;;;;;;;;;10475689;28;20239;-76
2021/08/11 21:22:40;;;;;;;10.03;5.00;;;;;;;;;;10459076;28;20220;-74
2021/08/11 21:27:43;;;;;;;10.97;5.07;;;;;;;;;;10459988;28;20251;-70
2021/08/11 21:32:47;;;;;;;11.50;4.73;;;;;;;;;;10462750;28;20197;-70
2021/08/11 21:37:50;;;;;;;11.13;4.60;;;;;;;;;;10462804;28;20228;-70
2021/08/11 21:42:53;;;;;;;11.23;5.40;;;;;;;;;;10454928;28;20545;-70
2021/08/11 21:47:58;;;;;;;10.03;4.67;;;;;;;;;;10460144;28;20197;-70
2021/08/11 21:53:01;;;;;;;9.40;4.80;;;;;;;;;;10466908;28;20283;-69
2021/08/11 21:58:03;;;;;;;10.70;4.67;;;;;;;;;;10465535;28;20235;-68
2021/08/11 22:03:08;;;;;;;8.83;4.40;;;;;;;;;;10467718;28;20196;-70
2021/08/11 22:08:11;;;;;;;8.47;4.83;;;;;;;;;;10473151;28;20208;-69
2021/08/11 22:13:14;;;;;;;9.00;4.70;;;;;;;;;;10454653;28;20595;-70
2021/08/11 22:18:17;;;;;;;9.90;4.57;;;;;;;;;;10453066;28;20607;-72
2021/08/11 22:23:20;;;;;;;9.27;5.10;;;;;;;;;;10471934;28;20250;-72
2021/08/11 22:28:23;;;;;;;10.63;4.67;;;;;;;;;;10464154;28;20608;-72
2021/08/11 22:33:27;;;;;;;11.20;4.87;;;;;;;;;;10470172;28;20204;-72
2021/08/11 22:38:30;;;;;;;12.37;5.57;;;;;;;;;;10485520;28;20315;-71
2021/08/11 22:43:33;;;;;;;9.60;4.37;;;;;;;;;;10481186;28;20196;-72
2021/08/11 22:48:36;;;;;;;10.53;4.90;;;;;;;;;;10477715;28;20216;-71
2021/08/11 22:53:39;;;;;;;10.53;4.97;;;;;;;;;;10483917;28;20192;-71
2021/08/11 22:58:42;;;;;;;9.80;5.37;;;;;;;;;;10480356;28;20738;-70
2021/08/11 23:03:45;;;;;;;11.90;5.27;;;;;;;;;;10464867;28;20641;-70
2021/08/11 23:08:48;;;;;;;9.70;4.87;;;;;;;;;;10465417;28;20301;-70
2021/08/11 23:13:50;;;;;;;8.80;4.57;;;;;;;;;;10471853;28;20275;-70
2021/08/11 23:18:54;;;;;;;11.40;5.03;;;;;;;;;;10460407;28;20224;-70
2021/08/11 23:23:57;;;;;;;8.77;4.43;;;;;;;;;;10468802;28;20203;-71
2021/08/11 23:28:59;;;;;;;10.90;4.90;;;;;;;;;;10447366;28;20719;-71
2021/08/11 23:34:03;;;;;;;11.33;5.13;;;;;;;;;;10447800;28;20244;-71
2021/08/11 23:39:06;;;;;;;10.03;4.63;;;;;;;;;;10463887;28;20349;-71
2021/08/11 23:44:08;;;;;;;11.13;5.40;;;;;;;;;;10480688;28;20668;-70
2021/08/11 23:49:13;;;;;;;11.37;5.00;;;;;;;;;;10479436;28;20240;-70
2021/08/11 23:54:15;;;;;;;9.20;4.90;;;;;;;;;;10477525;28;20276;-70
2021/08/11 23:59:18;;;;;;;10.07;5.10;;;;;;;;;;10474061;28;20247;-71
